Orlando, FL (32816)

11:00 PM EST on December 03, 2016 (GMT -0500)
UCF Area / WUCF-FM | | Change Station

Elev 85 ft 28.60 °N, 81.20 °W | Updated 1 second ago

Scattered Clouds
Scattered Clouds
62.5 °F
Feels Like 62.5 °F
N
0.0
Wind Variable Wind from NE
Gusts 0.0 mph

Today
High -- | Low -- °F
--% Chance of Precip.
Yesterday
High -- | Low -- °F
Precip. -- in
Pressure 30.15 in
Visibility 10.0 miles
Clouds Scattered Clouds 3500 ft
Dew Point 60 °F
Humidity 91%
Rainfall 0.00 in
Snow Depth Not available.
7:02 AM 5:27 PM
Waxing Crescent, 19% visible
METAR KORL 040353Z 05003KT 10SM SCT035 17/14 A3014 RMK AO2 SLP209 T01720139
Pressure 30.15 in
Visibility 10.0 miles
Clouds Scattered Clouds 3500 ft
Dew Point 60 °F
Humidity 91%
Rainfall 0.00 in
Snow Depth Not available.
7:02 AM 5:27 PM
Waxing Crescent, 19% visible
METAR KORL 040353Z 05003KT 10SM SCT035 17/14 A3014 RMK AO2 SLP209 T01720139

10-Day Weather Forecast

Almanac

Astronomy

Dec. 03, 2016 Rise Set
Actual Time
Civil Twilight
Nautical Twilight
Astronomical Twilight
Moon
Length of Visible Light
Length of Day
Tomorrow will be .
, % of the Moon is Illuminated

Today's Extremes

State Highs State Lows

Community

WunderPhotos

Upload Photos

1,955,573 photos uploaded!

WunderBlog® & News

Nearby

Air Quality

  Air Quality AQ Index Pollutant
Not available.

Snow Depth

Station Depth Elevation

Earthquake Activity

City Distance Mag. Time & Date
Minimum magnitude displayed is 2.5.

Coastal Water Temperatures

Place Temperature

Stations

Nearby Weather Stations

Station Location Temp. Windchill Dew Point Humidity Wind Precip. Elev Updated Type
                   

Watches & Warnings

There are currently no watches in effect.